createdAt,value
2018-09-08T00:02:27.196Z,101338.90
2018-09-08T00:04:56.667Z,101350.02
2018-09-08T00:07:30.562Z,101343.49
2018-09-08T00:09:59.603Z,101347.73
2018-09-08T00:12:28.379Z,101342.78
2018-09-08T00:14:56.420Z,101339.70
2018-09-08T00:17:30.415Z,101332.30
2018-09-08T00:20:04.338Z,101339.30
2018-09-08T00:22:38.513Z,101329.43
2018-09-08T00:25:12.447Z,101338.09
2018-09-08T00:27:42.622Z,101338.30
2018-09-08T00:30:13.641Z,101335.09
2018-09-08T00:32:44.612Z,101337.33
2018-09-08T00:35:13.389Z,101333.73
2018-09-08T00:37:42.851Z,101333.94
2018-09-08T00:40:12.133Z,101335.81
2018-09-08T00:42:40.863Z,101341.25
2018-09-08T00:45:09.638Z,101342.55
2018-09-08T00:47:38.466Z,101342.78
2018-09-08T00:50:07.168Z,101350.39
2018-09-08T00:52:42.426Z,101361.22
2018-09-08T00:55:11.182Z,101358.24
2018-09-08T00:57:40.537Z,101360.39
2018-09-08T01:00:10.196Z,101354.73
2018-09-08T01:02:39.574Z,101359.09
2018-09-08T01:05:08.411Z,101355.84
2018-09-08T01:07:37.165Z,101360.66
2018-09-08T01:10:06.206Z,101358.76
2018-09-08T01:12:40.296Z,101363.58
2018-09-08T01:15:09.940Z,101369.80
2018-09-08T01:17:38.925Z,101369.27
2018-09-08T01:20:07.702Z,101375.81
2018-09-08T01:22:37.540Z,101367.66
2018-09-08T01:25:07.385Z,101369.86
2018-09-08T01:27:36.139Z,101367.96
2018-09-08T01:30:05.512Z,101368.50
2018-09-08T01:32:34.285Z,101367.14
2018-09-08T01:35:03.010Z,101372.63
2018-09-08T01:37:31.972Z,101364.38
2018-09-08T01:40:00.726Z,101368.96
2018-09-08T01:42:29.747Z,101369.75
2018-09-08T01:44:58.486Z,101367.23
2018-09-08T01:47:27.765Z,101371.27
2018-09-08T01:49:56.534Z,101372.94
2018-09-08T01:52:25.324Z,101370.01
2018-09-08T01:54:54.043Z,101370.52
2018-09-08T01:57:23.431Z,101367.55
2018-09-08T01:59:52.441Z,101373.73
2018-09-08T02:02:21.223Z,101370.95
2018-09-08T02:04:49.989Z,101380.16
2018-09-08T02:07:19.350Z,101384.49
2018-09-08T02:09:48.398Z,101390.50
2018-09-08T02:12:17.722Z,101390.98
2018-09-08T02:14:46.743Z,101390.50
2018-09-08T02:17:15.717Z,101398.41
2018-09-08T02:19:44.485Z,101388.63
2018-09-08T02:22:13.799Z,101390.30
2018-09-08T02:24:42.739Z,101385.70
2018-09-08T02:27:11.528Z,101385.96
2018-09-08T02:29:40.334Z,101391.70
2018-09-08T02:32:09.110Z,101393.37
2018-09-08T02:34:38.446Z,101390.45
2018-09-08T02:37:07.200Z,101397.87
2018-09-08T02:39:36.250Z,101391.97
2018-09-08T02:42:05.032Z,101391.48
2018-09-08T02:44:34.415Z,101396.19
2018-09-08T02:47:10.408Z,101396.55
2018-09-08T02:49:50.659Z,101399.83
2018-09-08T02:52:18.299Z,101400.45
2018-09-08T02:54:45.998Z,101405.98
2018-09-08T02:57:13.380Z,101405.47
2018-09-08T02:59:40.775Z,101412.00
2018-09-08T03:02:08.594Z,101407.39
2018-09-08T03:04:36.218Z,101403.84
2018-09-08T03:07:07.754Z,101403.62
2018-09-08T03:09:35.523Z,101410.20
2018-09-08T03:12:03.238Z,101404.55
2018-09-08T03:14:30.900Z,101414.62
2018-09-08T03:16:58.651Z,101417.09
2018-09-08T03:19:26.408Z,101418.70
2018-09-08T03:21:53.849Z,101414.67
2018-09-08T03:24:21.240Z,101420.46
2018-09-08T03:26:48.647Z,101422.56
2018-09-08T03:29:16.071Z,101428.56
2018-09-08T03:31:43.513Z,101426.59
2018-09-08T03:34:11.581Z,101430.23
2018-09-08T03:36:39.303Z,101427.95
2018-09-08T03:39:06.720Z,101430.11
2018-09-08T03:41:34.692Z,101430.63
2018-09-08T03:44:02.104Z,101431.67
2018-09-08T03:46:30.029Z,101431.63
2018-09-08T03:48:57.463Z,101433.73
2018-09-08T03:51:25.169Z,101442.10
2018-09-08T03:53:52.594Z,101442.02
2018-09-08T03:56:20.342Z,101450.16
2018-09-08T03:58:47.789Z,101444.68
2018-09-08T04:01:15.568Z,101448.40
2018-09-08T04:03:44.286Z,101451.38
2018-09-08T04:06:13.269Z,101453.00
2018-09-08T04:08:42.296Z,101451.64
2018-09-08T04:11:11.099Z,101456.25
2018-09-08T04:13:40.072Z,101462.20
2018-09-08T04:16:09.070Z,101465.72
2018-09-08T04:18:38.502Z,101474.13
2018-09-08T04:21:07.584Z,101466.77
2018-09-08T04:23:37.296Z,101468.64
2018-09-08T04:26:06.111Z,101467.23
2018-09-08T04:28:34.868Z,101469.65
2018-09-08T04:31:04.724Z,101466.88
2018-09-08T04:33:34.205Z,101470.70
2018-09-08T04:36:03.533Z,101470.14
2018-09-08T04:38:33.071Z,101468.98
2018-09-08T04:41:02.180Z,101470.61
2018-09-08T04:43:30.872Z,101474.42
2018-09-08T04:45:59.963Z,101475.73
2018-09-08T04:48:29.607Z,101480.43
2018-09-08T04:50:58.752Z,101482.27
2018-09-08T04:53:27.772Z,101485.56
2018-09-08T04:55:56.781Z,101481.73
2018-09-08T04:58:25.542Z,101487.71
2018-09-08T05:00:54.269Z,101490.43
2018-09-08T05:03:23.010Z,101493.20
2018-09-08T05:05:52.303Z,101494.42
2018-09-08T05:08:21.495Z,101494.16
2018-09-08T05:10:50.518Z,101491.05
2018-09-08T05:13:25.833Z,101499.25
2018-09-08T05:15:54.843Z,101494.95
2018-09-08T05:18:23.619Z,101495.80
2018-09-08T05:20:52.597Z,101495.05
2018-09-08T05:23:21.613Z,101502.89
2018-09-08T05:25:51.107Z,101495.57
2018-09-08T05:28:20.129Z,101499.13
2018-09-08T05:30:48.885Z,101499.92
2018-09-08T05:33:17.869Z,101501.05
2018-09-08T05:35:46.657Z,101507.33
2018-09-08T05:38:15.637Z,101507.89
2018-09-08T05:40:45.019Z,101510.79
2018-09-08T05:43:13.779Z,101516.48
2018-09-08T05:45:43.564Z,101513.46
2018-09-08T05:48:12.273Z,101518.28
2018-09-08T05:50:41.059Z,101521.48
2018-09-08T05:53:09.799Z,101527.70
2018-09-08T05:55:38.553Z,101524.41
2018-09-08T05:58:07.592Z,101525.73
2018-09-08T06:00:36.316Z,101527.14
2018-09-08T06:03:05.342Z,101536.08
2018-09-08T06:05:34.106Z,101530.61
2018-09-08T06:08:02.895Z,101534.59
2018-09-08T06:10:31.895Z,101538.87
2018-09-08T06:13:01.187Z,101542.30
2018-09-08T06:15:29.958Z,101547.03
2018-09-08T06:17:59.041Z,101553.73
2018-09-08T06:20:27.774Z,101552.28
2018-09-08T06:22:57.207Z,101554.08
2018-09-08T06:25:26.487Z,101554.60
2018-09-08T06:27:55.747Z,101553.98
2018-09-08T06:30:24.627Z,101562.95
2018-09-08T06:32:53.951Z,101561.83
2018-09-08T06:35:22.865Z,101559.05
2018-09-08T06:37:51.800Z,101557.11
2018-09-08T06:40:20.812Z,101555.93
2018-09-08T06:42:52.836Z,101556.93
2018-09-08T06:45:22.858Z,101552.70
2018-09-08T06:47:51.665Z,101562.53
2018-09-08T06:50:20.792Z,101561.70
2018-09-08T06:52:50.483Z,101567.11
2018-09-08T06:55:19.856Z,101566.88
2018-09-08T06:57:48.932Z,101574.74
2018-09-08T07:00:17.856Z,101575.63
2018-09-08T07:02:46.654Z,101572.04
2018-09-08T07:05:15.370Z,101572.56
2018-09-08T07:07:44.567Z,101572.70
2018-09-08T07:10:13.612Z,101584.22
2018-09-08T07:12:42.541Z,101584.34
2018-09-08T07:15:11.555Z,101583.52
2018-09-08T07:17:40.654Z,101578.55
2018-09-08T07:20:09.395Z,101576.86
2018-09-08T07:22:38.126Z,101577.63
2018-09-08T07:25:07.933Z,101586.21
2018-09-08T07:27:36.744Z,101579.58
2018-09-08T07:30:05.724Z,101582.75
2018-09-08T07:32:34.510Z,101587.06
2018-09-08T07:35:03.588Z,101590.63
2018-09-08T07:37:33.339Z,101587.75
2018-09-08T07:40:02.486Z,101586.09
2018-09-08T07:42:31.232Z,101589.23
2018-09-08T07:44:59.997Z,101587.48
2018-09-08T07:47:28.769Z,101588.93
2018-09-08T07:49:58.185Z,101585.80
2018-09-08T07:52:26.938Z,101597.67
2018-09-08T07:54:56.206Z,101599.05
2018-09-08T07:57:25.199Z,101608.87
2018-09-08T07:59:54.264Z,101606.27
2018-09-08T08:02:23.927Z,101602.07
2018-09-08T08:04:53.343Z,101604.47
2018-09-08T08:07:22.808Z,101602.30
2018-09-08T08:09:51.817Z,101605.22
2018-09-08T08:12:21.658Z,101604.94
2018-09-08T08:14:50.794Z,101604.77
2018-09-08T08:17:19.970Z,101612.13
2018-09-08T08:19:48.776Z,101616.61
2018-09-08T08:22:17.571Z,101615.13
2018-09-08T08:24:46.643Z,101619.11
2018-09-08T08:27:15.786Z,101622.27
2018-09-08T08:29:44.798Z,101622.22
2018-09-08T08:32:13.840Z,101626.97
2018-09-08T08:34:42.980Z,101617.98
2018-09-08T08:37:12.101Z,101623.21
2018-09-08T08:39:40.869Z,101625.06
2018-09-08T08:42:16.381Z,101618.03
2018-09-08T08:44:45.170Z,101621.75
2018-09-08T08:47:13.930Z,101629.80
2018-09-08T08:49:43.015Z,101624.20
2018-09-08T08:52:22.777Z,101634.09
2018-09-08T08:54:55.519Z,101634.66
2018-09-08T08:57:24.251Z,101628.64
2018-09-08T08:59:53.419Z,101632.19
2018-09-08T09:02:22.137Z,101641.59
2018-09-08T09:04:51.348Z,101640.72
2018-09-08T09:07:20.460Z,101640.49
2018-09-08T09:09:49.688Z,101645.42
2018-09-08T09:12:18.791Z,101643.48
2018-09-08T09:14:47.781Z,101648.16
2018-09-08T09:17:16.528Z,101648.52
2018-09-08T09:19:56.949Z,101648.84
2018-09-08T09:22:36.847Z,101646.80
2018-09-08T09:25:07.885Z,101658.92
2018-09-08T09:27:38.083Z,101653.77
2018-09-08T09:30:07.934Z,101645.53
2018-09-08T09:32:36.641Z,101651.48
2018-09-08T09:35:06.367Z,101653.20
2018-09-08T09:37:35.520Z,101649.78
2018-09-08T09:40:04.863Z,101652.42
2018-09-08T09:42:33.670Z,101652.97
2018-09-08T09:45:02.400Z,101655.84
2018-09-08T09:47:31.648Z,101650.57
2018-09-08T09:50:00.418Z,101650.45
2018-09-08T09:52:29.806Z,101655.72
2018-09-08T09:54:59.686Z,101647.92
2018-09-08T09:57:28.471Z,101652.84
2018-09-08T09:59:57.822Z,101655.14
2018-09-08T10:02:42.487Z,101653.77
2018-09-08T10:05:13.399Z,101654.00
2018-09-08T10:07:42.502Z,101643.91
2018-09-08T10:10:13.618Z,101648.28
2018-09-08T10:12:43.036Z,101661.66
2018-09-08T10:15:12.414Z,101646.99
2018-09-08T10:17:42.330Z,101655.64
2018-09-08T10:20:14.180Z,101648.81
2018-09-08T10:22:43.250Z,101665.77
2018-09-08T10:25:14.337Z,101654.02
2018-09-08T10:27:43.926Z,101649.19
2018-09-08T10:30:13.822Z,101652.66
2018-09-08T10:32:43.700Z,101650.73
2018-09-08T10:35:12.782Z,101650.39
2018-09-08T10:37:41.845Z,101653.05
2018-09-08T10:40:12.603Z,101659.72
2018-09-08T10:42:41.927Z,101657.88
2018-09-08T10:45:10.792Z,101652.61
2018-09-08T10:47:40.331Z,101666.38
2018-09-08T10:50:10.364Z,101668.31
2018-09-08T10:52:42.127Z,101670.13
2018-09-08T10:55:11.127Z,101678.55
2018-09-08T10:57:40.193Z,101669.59
2018-09-08T11:00:09.905Z,101665.45
2018-09-08T11:02:38.834Z,101667.09
2018-09-08T11:05:07.570Z,101663.09
2018-09-08T11:07:36.641Z,101659.77
2018-09-08T11:10:06.000Z,101668.38
2018-09-08T11:12:35.083Z,101662.76
2018-09-08T11:15:03.901Z,101663.39
2018-09-08T11:17:33.144Z,101669.47
2018-09-08T11:20:01.969Z,101663.41
2018-09-08T11:22:30.747Z,101658.62
2018-09-08T11:24:59.519Z,101651.55
2018-09-08T11:27:28.505Z,101660.48
2018-09-08T11:29:57.613Z,101657.38
2018-09-08T11:32:26.363Z,101665.27
2018-09-08T11:34:55.159Z,101670.41
2018-09-08T11:37:24.473Z,101668.36
2018-09-08T11:39:58.252Z,101669.73
2018-09-08T11:42:27.020Z,101672.47
2018-09-08T11:44:56.384Z,101671.59
2018-09-08T11:47:25.057Z,101673.71
2018-09-08T11:49:54.157Z,101663.52
2018-09-08T11:52:23.220Z,101674.75
2018-09-08T11:54:51.973Z,101674.62
2018-09-08T11:57:21.537Z,101669.12
2018-09-08T11:59:50.653Z,101665.00
2018-09-08T12:02:19.826Z,101666.81
2018-09-08T12:04:48.577Z,101685.86
2018-09-08T12:07:17.408Z,101684.24
2018-09-08T12:09:46.502Z,101685.05
2018-09-08T12:12:15.979Z,101680.13
2018-09-08T12:14:45.034Z,101682.30
2018-09-08T12:17:13.755Z,101683.80
2018-09-08T12:19:42.563Z,101673.70
2018-09-08T12:22:11.461Z,101675.55
2018-09-08T12:24:40.393Z,101681.27
2018-09-08T12:27:09.476Z,101675.18
2018-09-08T12:29:38.499Z,101671.17
2018-09-08T12:32:07.768Z,101679.42
2018-09-08T12:34:36.545Z,101679.16
2018-09-08T12:37:05.703Z,101673.84
2018-09-08T12:39:34.660Z,101680.59
2018-09-08T12:42:03.370Z,101680.89
2018-09-08T12:44:32.168Z,101673.22
2018-09-08T12:47:00.927Z,101680.19
2018-09-08T12:49:29.715Z,101675.89
2018-09-08T12:51:58.794Z,101673.02
2018-09-08T12:54:27.535Z,101675.03
2018-09-08T12:56:56.827Z,101676.47
2018-09-08T12:59:25.553Z,101680.31
2018-09-08T13:01:54.741Z,101676.41
2018-09-08T13:04:23.483Z,101663.91
2018-09-08T13:06:52.554Z,101663.64
2018-09-08T13:09:21.705Z,101664.08
2018-09-08T13:11:50.628Z,101663.45
2018-09-08T13:14:19.378Z,101661.88
2018-09-08T13:16:49.317Z,101661.34
2018-09-08T13:19:18.339Z,101661.23
2018-09-08T13:21:47.333Z,101663.33
2018-09-08T13:24:16.099Z,101660.08
2018-09-08T13:26:44.829Z,101658.97
2018-09-08T13:29:13.601Z,101663.20
2018-09-08T13:31:42.715Z,101655.86
2018-09-08T13:34:11.783Z,101664.43
2018-09-08T13:36:40.548Z,101659.00
2018-09-08T13:39:10.226Z,101661.25
2018-09-08T13:41:38.939Z,101659.27
2018-09-08T13:44:08.308Z,101660.13
2018-09-08T13:46:37.027Z,101662.62
2018-09-08T13:49:06.171Z,101659.03
2018-09-08T13:51:35.001Z,101660.66
2018-09-08T13:54:03.728Z,101654.63
2018-09-08T13:56:32.708Z,101660.98
2018-09-08T13:59:01.462Z,101655.71
2018-09-08T14:01:30.191Z,101646.89
2018-09-08T14:03:59.378Z,101651.11
2018-09-08T14:06:28.126Z,101651.20
2018-09-08T14:08:56.858Z,101653.96
2018-09-08T14:11:25.565Z,101657.75
2018-09-08T14:13:54.335Z,101652.76
2018-09-08T14:16:23.402Z,101654.36
2018-09-08T14:18:52.675Z,101656.27
2018-09-08T14:21:22.089Z,101659.86
2018-09-08T14:23:50.807Z,101653.59
2018-09-08T14:26:19.591Z,101657.66
2018-09-08T14:28:48.337Z,101651.69
2018-09-08T14:31:17.104Z,101647.73
2018-09-08T14:33:45.918Z,101641.69
2018-09-08T14:36:15.290Z,101648.08
2018-09-08T14:38:44.063Z,101648.97
2018-09-08T14:41:13.350Z,101642.75
2018-09-08T14:43:42.075Z,101637.29
2018-09-08T14:46:11.142Z,101640.89
2018-09-08T14:48:39.875Z,101643.48
2018-09-08T14:51:08.627Z,101648.38
2018-09-08T14:53:37.613Z,101651.53
2018-09-08T14:56:07.131Z,101647.36
2018-09-08T14:58:35.872Z,101647.59
2018-09-08T15:01:04.867Z,101644.11
2018-09-08T15:03:33.815Z,101643.76
2018-09-08T15:06:02.582Z,101645.59
2018-09-08T15:08:31.658Z,101646.72
2018-09-08T15:11:00.408Z,101641.03
2018-09-08T15:13:29.885Z,101646.24
2018-09-08T15:15:59.667Z,101639.14
2018-09-08T15:18:28.649Z,101639.27
2018-09-08T15:20:58.706Z,101652.62
2018-09-08T15:23:28.453Z,101655.62
2018-09-08T15:25:57.494Z,101660.01
2018-09-08T15:28:27.005Z,101659.80
2018-09-08T15:30:56.099Z,101653.25
2018-09-08T15:33:25.150Z,101658.45
2018-09-08T15:35:53.898Z,101656.84
2018-09-08T15:38:23.797Z,101655.05
2018-09-08T15:40:52.836Z,101656.58
2018-09-08T15:43:21.886Z,101651.20
2018-09-08T15:45:50.929Z,101652.81
2018-09-08T15:48:20.139Z,101660.60
2018-09-08T15:50:48.901Z,101658.52
2018-09-08T15:53:18.170Z,101657.06
2018-09-08T15:55:47.174Z,101658.44
2018-09-08T15:58:15.982Z,101662.12
2018-09-08T16:00:44.707Z,101656.71
2018-09-08T16:03:13.711Z,101662.68
2018-09-08T16:05:42.760Z,101666.95
2018-09-08T16:08:12.062Z,101673.59
2018-09-08T16:10:40.774Z,101675.10
2018-09-08T16:13:09.536Z,101679.10
2018-09-08T16:15:38.668Z,101680.13
2018-09-08T16:18:07.415Z,101681.72
2018-09-08T16:20:36.499Z,101683.88
2018-09-08T16:23:05.503Z,101691.86
2018-09-08T16:25:40.927Z,101690.11
2018-09-08T16:28:10.124Z,101698.56
2018-09-08T16:30:38.827Z,101692.50
2018-09-08T16:33:07.989Z,101695.55
2018-09-08T16:35:36.780Z,101696.83
2018-09-08T16:38:06.166Z,101695.80
2018-09-08T16:40:34.973Z,101692.91
2018-09-08T16:43:03.967Z,101696.69
2018-09-08T16:45:32.730Z,101698.75
2018-09-08T16:48:07.823Z,101690.17
2018-09-08T16:50:37.017Z,101694.39
2018-09-08T16:53:05.911Z,101693.12
2018-09-08T16:55:34.946Z,101694.60
2018-09-08T16:58:04.221Z,101695.94
2018-09-08T17:00:33.326Z,101688.48
2018-09-08T17:03:02.526Z,101690.86
2018-09-08T17:05:31.648Z,101696.23
2018-09-08T17:08:00.357Z,101697.13
2018-09-08T17:10:29.092Z,101699.42
2018-09-08T17:12:58.162Z,101696.68
2018-09-08T17:15:27.572Z,101697.81
2018-09-08T17:17:56.295Z,101696.16
2018-09-08T17:20:25.565Z,101695.70
2018-09-08T17:22:54.601Z,101699.13
2018-09-08T17:25:23.710Z,101704.58
2018-09-08T17:27:52.677Z,101701.83
2018-09-08T17:30:22.115Z,101698.30
2018-09-08T17:32:51.126Z,101700.22
2018-09-08T17:35:19.905Z,101698.91
2018-09-08T17:37:49.167Z,101701.45
2018-09-08T17:40:17.863Z,101700.17
2018-09-08T17:42:46.950Z,101700.72
2018-09-08T17:45:15.989Z,101701.55
2018-09-08T17:47:45.204Z,101702.00
2018-09-08T17:50:14.146Z,101697.43
2018-09-08T17:52:43.202Z,101694.87
2018-09-08T17:55:12.195Z,101687.73
2018-09-08T17:57:41.331Z,101687.83
2018-09-08T18:00:10.392Z,101680.52
2018-09-08T18:02:39.800Z,101688.84
2018-09-08T18:05:08.793Z,101689.97
2018-09-08T18:07:37.839Z,101697.17
2018-09-08T18:10:07.406Z,101705.25
2018-09-08T18:12:36.165Z,101698.37
2018-09-08T18:15:04.971Z,101702.92
2018-09-08T18:17:34.603Z,101700.48
2018-09-08T18:20:03.679Z,101706.20
2018-09-08T18:22:32.793Z,101705.87
2018-09-08T18:25:02.080Z,101709.77
2018-09-08T18:27:31.108Z,101709.53
2018-09-08T18:29:59.858Z,101707.58
2018-09-08T18:32:29.211Z,101713.40
2018-09-08T18:34:57.971Z,101718.09
2018-09-08T18:37:27.326Z,101718.19
2018-09-08T18:39:56.115Z,101720.69
2018-09-08T18:42:25.233Z,101722.15
2018-09-08T18:44:54.015Z,101720.53
2018-09-08T18:47:22.731Z,101719.83
2018-09-08T18:49:52.233Z,101720.81
2018-09-08T18:52:20.950Z,101716.23
2018-09-08T18:54:49.696Z,101711.64
2018-09-08T18:57:19.840Z,101716.17
2018-09-08T18:59:49.174Z,101717.18
2018-09-08T19:02:18.758Z,101714.53
2018-09-08T19:04:47.575Z,101720.65
2018-09-08T19:07:16.396Z,101728.41
2018-09-08T19:09:49.516Z,101728.02
2018-09-08T19:12:18.459Z,101728.44
2018-09-08T19:14:52.357Z,101723.70
2018-09-08T19:17:21.547Z,101726.05
2018-09-08T19:19:52.085Z,101724.43
2018-09-08T19:22:21.090Z,101717.09
2018-09-08T19:24:49.875Z,101710.91
2018-09-08T19:27:18.710Z,101702.78
2018-09-08T19:29:49.465Z,101706.97
2018-09-08T19:32:19.283Z,101707.72
2018-09-08T19:34:53.130Z,101702.66
2018-09-08T19:37:22.116Z,101703.50
2018-09-08T19:39:51.265Z,101702.84
2018-09-08T19:42:20.037Z,101708.66
2018-09-08T19:44:49.127Z,101702.71
2018-09-08T19:47:23.223Z,101701.64
2018-09-08T19:49:52.617Z,101707.53
2018-09-08T19:52:26.928Z,101704.87
2018-09-08T19:54:55.807Z,101704.33
2018-09-08T19:57:29.715Z,101703.70
2018-09-08T19:59:58.778Z,101706.28
2018-09-08T20:02:27.858Z,101703.88
2018-09-08T20:04:57.262Z,101704.83
2018-09-08T20:07:26.049Z,101703.70
2018-09-08T20:09:55.050Z,101707.18
2018-09-08T20:12:24.171Z,101709.92
2018-09-08T20:14:52.910Z,101705.89
2018-09-08T20:17:22.289Z,101706.55
2018-09-08T20:19:51.049Z,101709.11
2018-09-08T20:22:20.097Z,101720.64
2018-09-08T20:24:48.867Z,101718.77
2018-09-08T20:27:17.835Z,101721.26
2018-09-08T20:29:46.895Z,101728.67
2018-09-08T20:32:15.893Z,101725.94
2018-09-08T20:34:45.098Z,101721.58
2018-09-08T20:37:13.801Z,101718.63
2018-09-08T20:39:42.631Z,101725.55
2018-09-08T20:42:12.046Z,101720.70
2018-09-08T20:44:41.013Z,101717.55
2018-09-08T20:47:10.418Z,101724.13
2018-09-08T20:49:39.754Z,101723.09
2018-09-08T20:52:08.573Z,101721.80
2018-09-08T20:54:37.631Z,101719.39
2018-09-08T20:57:06.425Z,101713.67
2018-09-08T20:59:35.476Z,101719.47
2018-09-08T21:02:04.280Z,101715.12
2018-09-08T21:04:33.182Z,101715.44
2018-09-08T21:07:02.298Z,101713.03
2018-09-08T21:09:31.217Z,101707.89
2018-09-08T21:12:00.140Z,101709.55
2018-09-08T21:14:29.266Z,101711.74
2018-09-08T21:16:58.579Z,101712.06
2018-09-08T21:19:27.387Z,101713.59
2018-09-08T21:21:56.540Z,101710.60
2018-09-08T21:24:25.771Z,101715.28
2018-09-08T21:26:55.074Z,101705.70
2018-09-08T21:29:24.249Z,101703.27
2018-09-08T21:31:53.068Z,101705.53
2018-09-08T21:34:21.884Z,101704.95
2018-09-08T21:36:50.871Z,101710.20
2018-09-08T21:39:19.769Z,101708.02
2018-09-08T21:41:48.727Z,101712.37
2018-09-08T21:44:17.680Z,101711.08
2018-09-08T21:46:46.586Z,101707.38
2018-09-08T21:49:15.324Z,101710.50
2018-09-08T21:51:46.035Z,101717.41
2018-09-08T21:54:14.984Z,101715.22
2018-09-08T21:56:45.859Z,101709.28
2018-09-08T21:59:14.959Z,101711.30
2018-09-08T22:01:44.296Z,101716.52
2018-09-08T22:04:13.548Z,101714.65
2018-09-08T22:06:42.522Z,101713.86
2018-09-08T22:09:12.068Z,101712.48
2018-09-08T22:11:45.295Z,101707.27
2018-09-08T22:14:14.178Z,101707.27
2018-09-08T22:16:43.260Z,101698.32
2018-09-08T22:19:12.358Z,101703.46
2018-09-08T22:21:41.376Z,101702.49
2018-09-08T22:24:10.262Z,101703.14
2018-09-08T22:26:39.648Z,101695.08
2018-09-08T22:29:08.907Z,101697.88
2018-09-08T22:31:38.648Z,101702.91
2018-09-08T22:34:07.406Z,101692.31
2018-09-08T22:36:36.271Z,101698.89
2018-09-08T22:39:06.878Z,101695.18
2018-09-08T22:41:36.648Z,101695.09
2018-09-08T22:44:06.555Z,101695.64
2018-09-08T22:46:36.886Z,101695.16
2018-09-08T22:49:07.040Z,101684.06
2018-09-08T22:51:37.429Z,101691.27
2018-09-08T22:54:06.513Z,101686.20
2018-09-08T22:56:35.306Z,101686.74
2018-09-08T22:59:04.071Z,101680.91
2018-09-08T23:01:32.821Z,101679.61
2018-09-08T23:04:01.799Z,101686.69
2018-09-08T23:06:30.492Z,101686.44
2018-09-08T23:08:59.507Z,101683.70
2018-09-08T23:11:28.292Z,101682.02
2018-09-08T23:13:57.083Z,101680.34
2018-09-08T23:16:26.561Z,101688.31
2018-09-08T23:18:55.767Z,101683.64
2018-09-08T23:21:24.707Z,101680.73
2018-09-08T23:23:53.572Z,101669.94
2018-09-08T23:26:22.306Z,101671.69
2018-09-08T23:28:51.301Z,101668.36
2018-09-08T23:31:20.716Z,101668.50
2018-09-08T23:33:49.454Z,101669.67
2018-09-08T23:36:18.520Z,101670.81
2018-09-08T23:38:47.422Z,101671.93
2018-09-08T23:41:16.209Z,101674.78
2018-09-08T23:43:45.553Z,101674.53
2018-09-08T23:46:14.274Z,101674.37
2018-09-08T23:48:43.424Z,101676.53
2018-09-08T23:51:12.430Z,101679.26
2018-09-08T23:53:41.536Z,101682.24
2018-09-08T23:56:10.370Z,101685.35
2018-09-08T23:58:39.728Z,101685.22
